Mattheos I — P3YV9 — position and weather

sailwx.info

Track history (hours):
 
Tides and Currents Weather Stations Pressure Air Temp Water Temp Dewpoint Dewpoint Depression Visibility Wind Speed Wind Dir Waves Ship Positions

Mattheos I

Last reported at 2017-Dec-11 14:02 UTC. Time now 2017-Dec-17 17:54 UTC.
Position N 35°52' E 025°34'.

Length 183 m; draft 11.8 m.

Type: Tanker. MMSI: 209632000.

Date/timePositionNaut miles runAvg speedWind from/ knotsBaromVisibWave heightAir tempDewpointWater temp
2017-Dec-11 14:02N 35°52' E 025°34'013.0
2017-Dec-11 14:00N 35°52' E 025°34'812.7
2017-Dec-11 13:23N 35°55' E 025°25'513.1
2017-Dec-11 13:00N 35°57' E 025°19'713.3
2017-Dec-11 12:30N 35°60' E 025°12'713.1
2017-Dec-11 12:00N 36°02' E 025°04'713.1
2017-Dec-11 11:29N 36°04' E 024°56'613.1
2017-Dec-11 11:00N 36°07' E 024°49'613.0
2017-Dec-11 10:30N 36°09' E 024°42'613.0
2017-Dec-11 10:00N 36°12' E 024°34'612.7
2017-Dec-11 09:30N 36°14' E 024°27'612.8
2017-Dec-11 09:00N 36°17' E 024°20'9011.5
2017-Dec-11 01:14N 37°41' E 023°41'313.2
2017-Dec-11 01:00N 37°43' E 023°40'713.1
2017-Dec-11 00:30N 37°49' E 023°36'4 7.3
2017-Dec-10 23:59N 37°51' E 023°32'0 0.3
2017-Dec-10 23:29N 37°51' E 023°32'0 0.0
2017-Dec-10 22:59N 37°51' E 023°32'0 0.0
2017-Dec-10 22:29N 37°51' E 023°32'0 0.0
2017-Dec-10 21:59N 37°51' E 023°32'0 0.0
2017-Dec-10 21:29N 37°51' E 023°32'0 0.0
2017-Dec-10 20:59N 37°51' E 023°32'0 0.0
2017-Dec-10 20:29N 37°51' E 023°32'0 0.0
2017-Dec-10 19:59N 37°51' E 023°32'0 0.1
2017-Dec-10 19:29N 37°51' E 023°32'0 0.1
2017-Dec-10 18:59N 37°51' E 023°32'0 0.2
2017-Dec-10 18:30N 37°51' E 023°32'1 2.0
2017-Dec-10 18:00N 37°51' E 023°33'2 3.6
2017-Dec-10 17:30N 37°51' E 023°35'1 2.8
2017-Dec-10 17:00N 37°51' E 023°37'2 4.0
2017-Dec-10 16:30N 37°50' E 023°39'5 9.1
2017-Dec-10 16:00N 37°46' E 023°42'5 9.4
2017-Dec-10 15:30N 37°42' E 023°45'36 8.5
2017-Dec-10 11:14N 37°50' E 024°29'  
2017-Dec-03 15:24N 46°46' E 031°57'0 0.0
2017-Dec-03 15:00N 46°46' E 031°57'0 0.0
2017-Dec-03 14:30N 46°46' E 031°57'0 0.0
2017-Dec-03 13:54N 46°46' E 031°57'0 0.0
2017-Dec-03 13:30N 46°46' E 031°57'0 0.0
2017-Dec-03 13:00N 46°46' E 031°57'0 0.0
2017-Dec-03 12:30N 46°46' E 031°57'0 0.0
2017-Dec-03 12:00N 46°46' E 031°57'0 0.0
2017-Dec-03 11:30N 46°46' E 031°57'0 0.0
2017-Dec-03 10:57N 46°46' E 031°57'0 0.0
2017-Dec-03 10:30N 46°46' E 031°57'0 0.0
2017-Dec-03 10:00N 46°46' E 031°57'0 0.0
2017-Dec-03 09:24N 46°46' E 031°57'0 0.0
2017-Dec-03 09:00N 46°46' E 031°57'0 0.0
2017-Dec-03 08:30N 46°46' E 031°57'0 0.0
2017-Dec-03 08:00N 46°46' E 031°57'0 0.0
2017-Dec-03 07:30N 46°46' E 031°57'0 0.0
2017-Dec-03 07:00N 46°46' E 031°57'0 0.0
2017-Dec-03 06:30N 46°46' E 031°57'0 0.0
2017-Dec-03 06:00N 46°46' E 031°57'0 0.0
2017-Dec-03 05:30N 46°46' E 031°57'0 0.0
2017-Dec-03 04:54N 46°46' E 031°57'0 0.0
2017-Dec-03 04:30N 46°46' E 031°57'0 0.0
2017-Dec-03 04:00N 46°46' E 031°57'0 0.0
2017-Dec-03 03:30N 46°46' E 031°57'0 0.0
2017-Dec-03 03:00N 46°46' E 031°57'0 0.0
2017-Dec-03 02:30N 46°46' E 031°57'0 0.0
2017-Dec-03 02:00N 46°46' E 031°57'0 0.0
2017-Dec-03 01:30N 46°46' E 031°57'0 0.0
2017-Dec-03 01:00N 46°46' E 031°57'0 0.0
2017-Dec-03 00:30N 46°46' E 031°57'0 0.0
2017-Dec-03 00:00N 46°46' E 031°57'0 0.0
2017-Dec-02 23:30N 46°46' E 031°57'0 0.0
2017-Dec-02 22:57N 46°46' E 031°57'0 0.0
2017-Dec-02 22:30N 46°46' E 031°57'0 0.0
2017-Dec-02 22:00N 46°46' E 031°57'0 0.0
2017-Dec-02 21:30N 46°46' E 031°57'0 0.0
2017-Dec-02 21:00N 46°46' E 031°57'0 0.0
2017-Dec-02 20:30N 46°46' E 031°57'0 0.0
2017-Dec-02 20:00N 46°46' E 031°57'0 0.0
2017-Dec-02 19:30N 46°46' E 031°57'0 0.0
2017-Dec-02 19:00N 46°46' E 031°57'0 0.0
2017-Dec-02 18:30N 46°46' E 031°57'0 0.0
2017-Dec-02 18:00N 46°46' E 031°57'0 0.0
2017-Dec-02 17:30N 46°46' E 031°57'0 0.2
2017-Dec-02 17:00N 46°46' E 031°57'0 0.0
2017-Dec-02 15:42N 46°46' E 031°57'0 0.0
2017-Dec-02 14:36N 46°46' E 031°57'0 0.0
2017-Dec-02 14:30N 46°46' E 031°57'0 0.0
2017-Dec-02 14:00N 46°46' E 031°57'0 0.0
2017-Dec-02 13:30N 46°46' E 031°57'0 0.0
2017-Dec-02 13:00N 46°46' E 031°57'0 0.0
2017-Dec-02 12:30N 46°46' E 031°57'0 0.0
2017-Dec-02 12:00N 46°46' E 031°57'0 0.0
2017-Dec-02 11:30N 46°46' E 031°57'0 0.0
2017-Dec-02 11:00N 46°46' E 031°57'0 0.0
2017-Dec-02 10:30N 46°46' E 031°57'0 0.0
2017-Dec-02 09:54N 46°46' E 031°57'0 0.0
2017-Dec-02 09:06N 46°46' E 031°57'0 0.1
2017-Dec-02 09:00N 46°46' E 031°57'0 0.0
2017-Dec-02 08:24N 46°46' E 031°57'0 0.0
2017-Dec-02 08:00N 46°46' E 031°57'0 0.0
2017-Dec-02 07:30N 46°46' E 031°57'0 0.0
2017-Dec-02 07:00N 46°46' E 031°57'0 0.0
2017-Dec-02 06:30N 46°46' E 031°57'0 0.0
2017-Dec-02 06:00N 46°46' E 031°57'0 0.0
2017-Dec-02 05:30N 46°46' E 031°57'0 0.0
2017-Dec-02 05:00N 46°46' E 031°57'0 0.0
2017-Dec-02 04:30N 46°46' E 031°57'0 0.0
2017-Dec-02 04:00N 46°46' E 031°57'0 0.0
2017-Dec-02 03:30N 46°46' E 031°57'0 0.0
2017-Dec-02 03:00N 46°46' E 031°57'0 0.0
2017-Dec-02 02:30N 46°46' E 031°57'0 0.0
2017-Dec-02 02:00N 46°46' E 031°57'0 0.0
2017-Dec-02 01:30N 46°46' E 031°57'0 0.0
2017-Dec-02 01:00N 46°46' E 031°57'0 0.0
2017-Dec-02 00:30N 46°46' E 031°57'0 0.0
2017-Dec-02 00:00N 46°46' E 031°57'0 0.0
2017-Dec-01 23:30N 46°46' E 031°57'0 0.0
2017-Dec-01 23:00N 46°46' E 031°57'0 0.0
2017-Dec-01 22:30N 46°46' E 031°57'0 0.0
2017-Dec-01 21:57N 46°46' E 031°57'0 0.0
2017-Dec-01 21:30N 46°46' E 031°57'0 0.0
2017-Dec-01 21:00N 46°46' E 031°57'0 0.0
2017-Dec-01 20:30N 46°46' E 031°57'0 0.0
2017-Dec-01 20:00N 46°46' E 031°57'0 0.0
2017-Dec-01 19:30N 46°46' E 031°57'0 0.0
2017-Dec-01 18:57N 46°46' E 031°57'0 0.0
2017-Dec-01 18:30N 46°46' E 031°57'0 0.0
2017-Dec-01 18:00N 46°46' E 031°57'0 0.0
2017-Dec-01 17:30N 46°46' E 031°57'0 0.0
2017-Dec-01 17:00N 46°46' E 031°57'0 0.0
2017-Dec-01 16:30N 46°46' E 031°57'0 0.0
2017-Dec-01 16:00N 46°46' E 031°57'0 0.0
2017-Dec-01 15:30N 46°46' E 031°57'0 0.0
2017-Dec-01 15:00N 46°46' E 031°57'0 0.0
2017-Dec-01 14:27N 46°46' E 031°57'  
Track history (hours):
 
Tides and Currents Weather Stations Pressure Air Temp Water Temp Dewpoint Dewpoint Depression Visibility Wind Speed Wind Dir Waves Ship Positions

Mattheos I

Last reported at 2017-Dec-11 14:02 UTC. Time now 2017-Dec-17 17:54 UTC.
Position N 35°52' E 025°34'.

Length 183 m; draft 11.8 m.

Type: Tanker. MMSI: 209632000.

Date/timePositionNaut miles runAvg speedWind from/ knotsBaromVisibWave heightAir tempDewpointWater temp
2017-Dec-11 14:02N 35°52' E 025°34'013.0
2017-Dec-11 14:00N 35°52' E 025°34'812.7
2017-Dec-11 13:23N 35°55' E 025°25'513.1
2017-Dec-11 13:00N 35°57' E 025°19'713.3
2017-Dec-11 12:30N 35°60' E 025°12'713.1
2017-Dec-11 12:00N 36°02' E 025°04'713.1
2017-Dec-11 11:29N 36°04' E 024°56'613.1
2017-Dec-11 11:00N 36°07' E 024°49'613.0
2017-Dec-11 10:30N 36°09' E 024°42'613.0
2017-Dec-11 10:00N 36°12' E 024°34'612.7
2017-Dec-11 09:30N 36°14' E 024°27'612.8
2017-Dec-11 09:00N 36°17' E 024°20'9011.5
2017-Dec-11 01:14N 37°41' E 023°41'313.2
2017-Dec-11 01:00N 37°43' E 023°40'713.1
2017-Dec-11 00:30N 37°49' E 023°36'4 7.3
2017-Dec-10 23:59N 37°51' E 023°32'0 0.3
2017-Dec-10 23:29N 37°51' E 023°32'0 0.0
2017-Dec-10 22:59N 37°51' E 023°32'0 0.0
2017-Dec-10 22:29N 37°51' E 023°32'0 0.0
2017-Dec-10 21:59N 37°51' E 023°32'0 0.0
2017-Dec-10 21:29N 37°51' E 023°32'0 0.0
2017-Dec-10 20:59N 37°51' E 023°32'0 0.0
2017-Dec-10 20:29N 37°51' E 023°32'0 0.0
2017-Dec-10 19:59N 37°51' E 023°32'0 0.1
2017-Dec-10 19:29N 37°51' E 023°32'0 0.1
2017-Dec-10 18:59N 37°51' E 023°32'0 0.2
2017-Dec-10 18:30N 37°51' E 023°32'1 2.0
2017-Dec-10 18:00N 37°51' E 023°33'2 3.6
2017-Dec-10 17:30N 37°51' E 023°35'1 2.8
2017-Dec-10 17:00N 37°51' E 023°37'2 4.0
2017-Dec-10 16:30N 37°50' E 023°39'5 9.1
2017-Dec-10 16:00N 37°46' E 023°42'5 9.4
2017-Dec-10 15:30N 37°42' E 023°45'36 8.5
2017-Dec-10 11:14N 37°50' E 024°29'  
2017-Dec-03 15:24N 46°46' E 031°57'0 0.0
2017-Dec-03 15:00N 46°46' E 031°57'0 0.0
2017-Dec-03 14:30N 46°46' E 031°57'0 0.0
2017-Dec-03 13:54N 46°46' E 031°57'0 0.0
2017-Dec-03 13:30N 46°46' E 031°57'0 0.0
2017-Dec-03 13:00N 46°46' E 031°57'0 0.0
2017-Dec-03 12:30N 46°46' E 031°57'0 0.0
2017-Dec-03 12:00N 46°46' E 031°57'0 0.0
2017-Dec-03 11:30N 46°46' E 031°57'0 0.0
2017-Dec-03 10:57N 46°46' E 031°57'0 0.0
2017-Dec-03 10:30N 46°46' E 031°57'0 0.0
2017-Dec-03 10:00N 46°46' E 031°57'0 0.0
2017-Dec-03 09:24N 46°46' E 031°57'0 0.0
2017-Dec-03 09:00N 46°46' E 031°57'0 0.0
2017-Dec-03 08:30N 46°46' E 031°57'0 0.0
2017-Dec-03 08:00N 46°46' E 031°57'0 0.0
2017-Dec-03 07:30N 46°46' E 031°57'0 0.0
2017-Dec-03 07:00N 46°46' E 031°57'0 0.0
2017-Dec-03 06:30N 46°46' E 031°57'0 0.0
2017-Dec-03 06:00N 46°46' E 031°57'0 0.0
2017-Dec-03 05:30N 46°46' E 031°57'0 0.0
2017-Dec-03 04:54N 46°46' E 031°57'0 0.0
2017-Dec-03 04:30N 46°46' E 031°57'0 0.0
2017-Dec-03 04:00N 46°46' E 031°57'0 0.0
2017-Dec-03 03:30N 46°46' E 031°57'0 0.0
2017-Dec-03 03:00N 46°46' E 031°57'0 0.0
2017-Dec-03 02:30N 46°46' E 031°57'0 0.0
2017-Dec-03 02:00N 46°46' E 031°57'0 0.0
2017-Dec-03 01:30N 46°46' E 031°57'0 0.0
2017-Dec-03 01:00N 46°46' E 031°57'0 0.0
2017-Dec-03 00:30N 46°46' E 031°57'0 0.0
2017-Dec-03 00:00N 46°46' E 031°57'0 0.0
2017-Dec-02 23:30N 46°46' E 031°57'0 0.0
2017-Dec-02 22:57N 46°46' E 031°57'0 0.0
2017-Dec-02 22:30N 46°46' E 031°57'0 0.0
2017-Dec-02 22:00N 46°46' E 031°57'0 0.0
2017-Dec-02 21:30N 46°46' E 031°57'0 0.0
2017-Dec-02 21:00N 46°46' E 031°57'0 0.0
2017-Dec-02 20:30N 46°46' E 031°57'0 0.0
2017-Dec-02 20:00N 46°46' E 031°57'0 0.0
2017-Dec-02 19:30N 46°46' E 031°57'0 0.0
2017-Dec-02 19:00N 46°46' E 031°57'0 0.0
2017-Dec-02 18:30N 46°46' E 031°57'0 0.0
2017-Dec-02 18:00N 46°46' E 031°57'0 0.0
2017-Dec-02 17:30N 46°46' E 031°57'0 0.2
2017-Dec-02 17:00N 46°46' E 031°57'0 0.0
2017-Dec-02 15:42N 46°46' E 031°57'0 0.0
2017-Dec-02 14:36N 46°46' E 031°57'0 0.0
2017-Dec-02 14:30N 46°46' E 031°57'0 0.0
2017-Dec-02 14:00N 46°46' E 031°57'0 0.0
2017-Dec-02 13:30N 46°46' E 031°57'0 0.0
2017-Dec-02 13:00N 46°46' E 031°57'0 0.0
2017-Dec-02 12:30N 46°46' E 031°57'0 0.0
2017-Dec-02 12:00N 46°46' E 031°57'0 0.0
2017-Dec-02 11:30N 46°46' E 031°57'0 0.0
2017-Dec-02 11:00N 46°46' E 031°57'0 0.0
2017-Dec-02 10:30N 46°46' E 031°57'0 0.0
2017-Dec-02 09:54N 46°46' E 031°57'0 0.0
2017-Dec-02 09:06N 46°46' E 031°57'0 0.1
2017-Dec-02 09:00N 46°46' E 031°57'0 0.0
2017-Dec-02 08:24N 46°46' E 031°57'0 0.0
2017-Dec-02 08:00N 46°46' E 031°57'0 0.0
2017-Dec-02 07:30N 46°46' E 031°57'0 0.0
2017-Dec-02 07:00N 46°46' E 031°57'0 0.0
2017-Dec-02 06:30N 46°46' E 031°57'0 0.0
2017-Dec-02 06:00N 46°46' E 031°57'0 0.0
2017-Dec-02 05:30N 46°46' E 031°57'0 0.0
2017-Dec-02 05:00N 46°46' E 031°57'0 0.0
2017-Dec-02 04:30N 46°46' E 031°57'0 0.0
2017-Dec-02 04:00N 46°46' E 031°57'0 0.0
2017-Dec-02 03:30N 46°46' E 031°57'0 0.0
2017-Dec-02 03:00N 46°46' E 031°57'0 0.0
2017-Dec-02 02:30N 46°46' E 031°57'0 0.0
2017-Dec-02 02:00N 46°46' E 031°57'0 0.0
2017-Dec-02 01:30N 46°46' E 031°57'0 0.0
2017-Dec-02 01:00N 46°46' E 031°57'0 0.0
2017-Dec-02 00:30N 46°46' E 031°57'0 0.0
2017-Dec-02 00:00N 46°46' E 031°57'0 0.0
2017-Dec-01 23:30N 46°46' E 031°57'0 0.0
2017-Dec-01 23:00N 46°46' E 031°57'0 0.0
2017-Dec-01 22:30N 46°46' E 031°57'0 0.0
2017-Dec-01 21:57N 46°46' E 031°57'0 0.0
2017-Dec-01 21:30N 46°46' E 031°57'0 0.0
2017-Dec-01 21:00N 46°46' E 031°57'0 0.0
2017-Dec-01 20:30N 46°46' E 031°57'0 0.0
2017-Dec-01 20:00N 46°46' E 031°57'0 0.0
2017-Dec-01 19:30N 46°46' E 031°57'0 0.0
2017-Dec-01 18:57N 46°46' E 031°57'0 0.0
2017-Dec-01 18:30N 46°46' E 031°57'0 0.0
2017-Dec-01 18:00N 46°46' E 031°57'0 0.0
2017-Dec-01 17:30N 46°46' E 031°57'0 0.0
2017-Dec-01 17:00N 46°46' E 031°57'0 0.0
2017-Dec-01 16:30N 46°46' E 031°57'0 0.0
2017-Dec-01 16:00N 46°46' E 031°57'0 0.0
2017-Dec-01 15:30N 46°46' E 031°57'0 0.0
2017-Dec-01 15:00N 46°46' E 031°57'0 0.0
2017-Dec-01 14:27N 46°46' E 031°57'  

Dump ship's entire track history